Terminal Aerodrome Forecast
Issued by NWS Anchorage, AK

Home | Current Version | Previous Version | Text Only | Print | Product List | Glossary On
Versions: 1 2 3 4 5 6 7 8 9 10 11 12 13 14 15 16 17 18 19 20 21 22 23 24
000
FTAK31 PANC 251726
TAFANC
TAF
PANC 251726Z 2518/2624 VRB04KT P6SM -RA FEW009 SCT020 OVC070
      TEMPO 2518/2522 BKN020 OVC070
     FM260100 15013G22KT P6SM VCSH SCT035 OVC060
     FM260900 VRB05KT P6SM OVC070=

USA.gov is the U.S. government's official web portal to all federal, state and local government web resources and services.